sensor_id;sensor_type;location;lat;lon;timestamp;temperature;humidity
46217;DHT22;47258;59.424;13.482;2023-02-03T00:01:11;-6.80;99.90
46217;DHT22;47258;59.424;13.482;2023-02-03T00:03:38;-6.70;99.90
46217;DHT22;47258;59.424;13.482;2023-02-03T00:06:06;-6.80;99.90
46217;DHT22;47258;59.424;13.482;2023-02-03T00:08:34;-6.80;99.90
46217;DHT22;47258;59.424;13.482;2023-02-03T00:11:02;-6.80;99.90
46217;DHT22;47258;59.424;13.482;2023-02-03T00:13:29;-6.90;99.90
46217;DHT22;47258;59.424;13.482;2023-02-03T00:15:56;-6.90;99.90
46217;DHT22;47258;59.424;13.482;2023-02-03T00:18:26;-7.00;99.90
46217;DHT22;47258;59.424;13.482;2023-02-03T00:20:53;-6.90;99.90
46217;DHT22;47258;59.424;13.482;2023-02-03T00:23:20;-6.90;99.90
46217;DHT22;47258;59.424;13.482;2023-02-03T00:25:48;-6.90;99.90
46217;DHT22;47258;59.424;13.482;2023-02-03T00:28:15;-6.90;99.90
46217;DHT22;47258;59.424;13.482;2023-02-03T00:30:42;-6.90;99.90
46217;DHT22;47258;59.424;13.482;2023-02-03T00:33:09;-6.90;99.90
46217;DHT22;47258;59.424;13.482;2023-02-03T00:35:37;-6.90;99.90
46217;DHT22;47258;59.424;13.482;2023-02-03T00:38:04;-6.90;99.90
46217;DHT22;47258;59.424;13.482;2023-02-03T00:40:31;-6.80;99.90
46217;DHT22;47258;59.424;13.482;2023-02-03T00:43:00;-6.80;99.90
46217;DHT22;47258;59.424;13.482;2023-02-03T00:45:27;-6.70;99.90
46217;DHT22;47258;59.424;13.482;2023-02-03T00:47:54;-6.60;99.90
46217;DHT22;47258;59.424;13.482;2023-02-03T00:50:21;-6.50;99.90
46217;DHT22;47258;59.424;13.482;2023-02-03T00:52:48;-6.50;99.90
46217;DHT22;47258;59.424;13.482;2023-02-03T00:55:15;-6.40;99.90
46217;DHT22;47258;59.424;13.482;2023-02-03T00:57:42;-6.40;99.90
46217;DHT22;47258;59.424;13.482;2023-02-03T01:00:12;-6.30;99.90
46217;DHT22;47258;59.424;13.482;2023-02-03T01:02:39;-6.30;99.90
46217;DHT22;47258;59.424;13.482;2023-02-03T01:05:07;-6.30;99.90
46217;DHT22;47258;59.424;13.482;2023-02-03T01:07:34;-6.30;99.90
46217;DHT22;47258;59.424;13.482;2023-02-03T01:10:01;-6.30;99.90
46217;DHT22;47258;59.424;13.482;2023-02-03T01:12:28;-6.30;99.90
46217;DHT22;47258;59.424;13.482;2023-02-03T01:14:56;-6.40;99.90
46217;DHT22;47258;59.424;13.482;2023-02-03T01:17:24;-6.40;99.90
46217;DHT22;47258;59.424;13.482;2023-02-03T01:19:52;-6.30;99.90
46217;DHT22;47258;59.424;13.482;2023-02-03T01:22:19;-6.30;99.90
46217;DHT22;47258;59.424;13.482;2023-02-03T01:24:46;-6.30;99.90
46217;DHT22;47258;59.424;13.482;2023-02-03T01:27:13;-6.30;99.90
46217;DHT22;47258;59.424;13.482;2023-02-03T01:29:40;-6.30;99.90
46217;DHT22;47258;59.424;13.482;2023-02-03T01:32:07;-6.30;99.90
46217;DHT22;47258;59.424;13.482;2023-02-03T01:34:36;-6.20;99.90
46217;DHT22;47258;59.424;13.482;2023-02-03T01:37:03;-6.20;99.90
46217;DHT22;47258;59.424;13.482;2023-02-03T01:39:30;-6.20;99.90
46217;DHT22;47258;59.424;13.482;2023-02-03T01:41:57;-6.20;99.90
46217;DHT22;47258;59.424;13.482;2023-02-03T01:44:48;-6.20;99.90
46217;DHT22;47258;59.424;13.482;2023-02-03T01:47:30;-6.10;99.90
46217;DHT22;47258;59.424;13.482;2023-02-03T01:50:05;-6.10;99.90
46217;DHT22;47258;59.424;13.482;2023-02-03T01:52:34;-6.10;99.90
46217;DHT22;47258;59.424;13.482;2023-02-03T01:55:05;-6.10;99.90
46217;DHT22;47258;59.424;13.482;2023-02-03T01:57:37;-6.00;99.90
46217;DHT22;47258;59.424;13.482;2023-02-03T02:00:07;-6.00;99.90
46217;DHT22;47258;59.424;13.482;2023-02-03T02:02:35;-6.00;99.90
46217;DHT22;47258;59.424;13.482;2023-02-03T02:05:05;-5.90;99.90
46217;DHT22;47258;59.424;13.482;2023-02-03T02:07:33;-5.90;99.90
46217;DHT22;47258;59.424;13.482;2023-02-03T02:10:03;-5.80;99.90
46217;DHT22;47258;59.424;13.482;2023-02-03T02:12:30;-5.80;99.90
46217;DHT22;47258;59.424;13.482;2023-02-03T02:14:57;-5.80;99.90
46217;DHT22;47258;59.424;13.482;2023-02-03T02:17:48;-5.80;99.90
46217;DHT22;47258;59.424;13.482;2023-02-03T02:23:58;-5.70;99.90
46217;DHT22;47258;59.424;13.482;2023-02-03T02:26:56;-5.70;99.90
46217;DHT22;47258;59.424;13.482;2023-02-03T02:30:03;-5.70;99.90
46217;DHT22;47258;59.424;13.482;2023-02-03T02:32:46;-5.70;99.90
46217;DHT22;47258;59.424;13.482;2023-02-03T02:35:21;-5.60;99.90
46217;DHT22;47258;59.424;13.482;2023-02-03T02:37:55;-5.60;99.90
46217;DHT22;47258;59.424;13.482;2023-02-03T02:40:31;-5.60;99.90
46217;DHT22;47258;59.424;13.482;2023-02-03T02:43:06;-5.60;99.90
46217;DHT22;47258;59.424;13.482;2023-02-03T02:45:43;-5.50;99.90
46217;DHT22;47258;59.424;13.482;2023-02-03T02:48:19;-5.50;99.90
46217;DHT22;47258;59.424;13.482;2023-02-03T02:50:49;-5.50;99.90
46217;DHT22;47258;59.424;13.482;2023-02-03T02:53:20;-5.50;99.90
46217;DHT22;47258;59.424;13.482;2023-02-03T02:55:48;-5.50;99.90
46217;DHT22;47258;59.424;13.482;2023-02-03T02:58:18;-5.40;99.90
46217;DHT22;47258;59.424;13.482;2023-02-03T03:00:46;-5.40;99.90
46217;DHT22;47258;59.424;13.482;2023-02-03T03:03:16;-5.40;99.90
46217;DHT22;47258;59.424;13.482;2023-02-03T03:05:47;-5.30;99.90
46217;DHT22;47258;59.424;13.482;2023-02-03T03:08:18;-5.30;99.90
46217;DHT22;47258;59.424;13.482;2023-02-03T03:10:46;-5.30;99.90
46217;DHT22;47258;59.424;13.482;2023-02-03T03:13:19;-5.30;99.90
46217;DHT22;47258;59.424;13.482;2023-02-03T03:15:49;-5.30;99.90
46217;DHT22;47258;59.424;13.482;2023-02-03T03:18:21;-5.20;99.90
46217;DHT22;47258;59.424;13.482;2023-02-03T03:20:50;-5.20;99.90
46217;DHT22;47258;59.424;13.482;2023-02-03T03:23:19;-5.30;99.90
46217;DHT22;47258;59.424;13.482;2023-02-03T03:25:53;-5.30;99.90
46217;DHT22;47258;59.424;13.482;2023-02-03T03:28:23;-5.30;99.90
46217;DHT22;47258;59.424;13.482;2023-02-03T03:30:51;-5.40;99.90
46217;DHT22;47258;59.424;13.482;2023-02-03T03:33:21;-5.40;99.90
46217;DHT22;47258;59.424;13.482;2023-02-03T03:35:55;-5.40;99.90
46217;DHT22;47258;59.424;13.482;2023-02-03T03:38:27;-5.30;99.90
46217;DHT22;47258;59.424;13.482;2023-02-03T03:41:02;-5.30;99.90
46217;DHT22;47258;59.424;13.482;2023-02-03T03:43:34;-5.30;99.90
46217;DHT22;47258;59.424;13.482;2023-02-03T03:46:08;-5.30;99.90
46217;DHT22;47258;59.424;13.482;2023-02-03T03:48:43;-5.30;99.90
46217;DHT22;47258;59.424;13.482;2023-02-03T03:51:17;-5.30;99.90
46217;DHT22;47258;59.424;13.482;2023-02-03T03:53:47;-5.30;99.90
46217;DHT22;47258;59.424;13.482;2023-02-03T03:56:20;-5.20;99.90
46217;DHT22;47258;59.424;13.482;2023-02-03T03:58:50;-5.20;99.90
46217;DHT22;47258;59.424;13.482;2023-02-03T04:01:19;-5.20;99.90
46217;DHT22;47258;59.424;13.482;2023-02-03T04:03:51;-5.20;99.90
46217;DHT22;47258;59.424;13.482;2023-02-03T04:06:20;-5.20;99.90
46217;DHT22;47258;59.424;13.482;2023-02-03T04:08:48;-5.20;99.90
46217;DHT22;47258;59.424;13.482;2023-02-03T04:11:15;-5.20;99.90
46217;DHT22;47258;59.424;13.482;2023-02-03T04:14:02;-5.20;99.90
46217;DHT22;47258;59.424;13.482;2023-02-03T04:16:30;-5.20;99.90
46217;DHT22;47258;59.424;13.482;2023-02-03T04:18:58;-5.20;99.90
46217;DHT22;47258;59.424;13.482;2023-02-03T04:21:25;-5.20;99.90
46217;DHT22;47258;59.424;13.482;2023-02-03T04:23:52;-5.20;99.90
46217;DHT22;47258;59.424;13.482;2023-02-03T04:26:21;-5.20;99.90
46217;DHT22;47258;59.424;13.482;2023-02-03T04:28:48;-5.10;99.90
46217;DHT22;47258;59.424;13.482;2023-02-03T04:31:15;-5.10;99.90
46217;DHT22;47258;59.424;13.482;2023-02-03T04:33:42;-5.20;99.90
46217;DHT22;47258;59.424;13.482;2023-02-03T04:36:11;-5.10;99.90
46217;DHT22;47258;59.424;13.482;2023-02-03T04:38:38;-5.20;99.90
46217;DHT22;47258;59.424;13.482;2023-02-03T04:41:05;-5.20;99.90
46217;DHT22;47258;59.424;13.482;2023-02-03T04:43:32;-5.20;99.90
46217;DHT22;47258;59.424;13.482;2023-02-03T04:45:59;-5.20;99.90
46217;DHT22;47258;59.424;13.482;2023-02-03T04:48:26;-5.20;99.90
46217;DHT22;47258;59.424;13.482;2023-02-03T04:50:53;-5.20;99.90
46217;DHT22;47258;59.424;13.482;2023-02-03T04:53:22;-5.20;99.90
46217;DHT22;47258;59.424;13.482;2023-02-03T04:55:49;-5.10;99.90
46217;DHT22;47258;59.424;13.482;2023-02-03T04:58:16;-5.10;99.90
46217;DHT22;47258;59.424;13.482;2023-02-03T05:00:43;-5.10;99.90
46217;DHT22;47258;59.424;13.482;2023-02-03T05:03:10;-5.00;99.90
46217;DHT22;47258;59.424;13.482;2023-02-03T05:05:37;-4.90;99.90
46217;DHT22;47258;59.424;13.482;2023-02-03T05:08:04;-4.90;99.90
46217;DHT22;47258;59.424;13.482;2023-02-03T05:10:33;-4.90;99.90
46217;DHT22;47258;59.424;13.482;2023-02-03T05:13:00;-4.80;99.90
46217;DHT22;47258;59.424;13.482;2023-02-03T05:15:27;-4.80;99.90
46217;DHT22;47258;59.424;13.482;2023-02-03T05:17:54;-4.70;99.90
46217;DHT22;47258;59.424;13.482;2023-02-03T05:20:21;-4.70;99.90
46217;DHT22;47258;59.424;13.482;2023-02-03T05:22:48;-4.70;99.90
46217;DHT22;47258;59.424;13.482;2023-02-03T05:25:15;-4.70;99.90
46217;DHT22;47258;59.424;13.482;2023-02-03T05:27:44;-4.70;99.90
46217;DHT22;47258;59.424;13.482;2023-02-03T05:30:11;-4.70;99.90
46217;DHT22;47258;59.424;13.482;2023-02-03T05:32:38;-4.60;99.90
46217;DHT22;47258;59.424;13.482;2023-02-03T05:35:06;-4.60;99.90
46217;DHT22;47258;59.424;13.482;2023-02-03T05:37:33;-4.50;99.90
46217;DHT22;47258;59.424;13.482;2023-02-03T05:40:00;-4.40;99.90
46217;DHT22;47258;59.424;13.482;2023-02-03T05:42:46;-4.40;99.90
46217;DHT22;47258;59.424;13.482;2023-02-03T05:45:14;-4.40;99.90
46217;DHT22;47258;59.424;13.482;2023-02-03T05:47:41;-4.40;99.90
46217;DHT22;47258;59.424;13.482;2023-02-03T05:50:08;-4.40;99.90
46217;DHT22;47258;59.424;13.482;2023-02-03T05:52:35;-4.30;99.90
46217;DHT22;47258;59.424;13.482;2023-02-03T05:55:03;-4.30;99.90
46217;DHT22;47258;59.424;13.482;2023-02-03T05:57:30;-4.30;99.90
46217;DHT22;47258;59.424;13.482;2023-02-03T05:59:58;-4.30;99.90
46217;DHT22;47258;59.424;13.482;2023-02-03T06:02:25;-4.30;99.90
46217;DHT22;47258;59.424;13.482;2023-02-03T06:04:52;-4.30;99.90
46217;DHT22;47258;59.424;13.482;2023-02-03T06:07:19;-4.30;99.90
46217;DHT22;47258;59.424;13.482;2023-02-03T06:09:47;-4.20;99.90
46217;DHT22;47258;59.424;13.482;2023-02-03T06:12:14;-4.20;99.90
46217;DHT22;47258;59.424;13.482;2023-02-03T06:14:41;-4.20;99.90
46217;DHT22;47258;59.424;13.482;2023-02-03T06:17:09;-4.20;99.90
46217;DHT22;47258;59.424;13.482;2023-02-03T06:19:36;-4.10;99.90
46217;DHT22;47258;59.424;13.482;2023-02-03T06:22:03;-4.10;99.90
46217;DHT22;47258;59.424;13.482;2023-02-03T06:24:31;-4.00;99.90
46217;DHT22;47258;59.424;13.482;2023-02-03T06:26:58;-4.00;99.90
46217;DHT22;47258;59.424;13.482;2023-02-03T06:29:25;-4.00;99.90
46217;DHT22;47258;59.424;13.482;2023-02-03T06:31:52;-3.90;99.90
46217;DHT22;47258;59.424;13.482;2023-02-03T06:34:20;-3.90;99.90
46217;DHT22;47258;59.424;13.482;2023-02-03T06:36:47;-3.90;99.90
46217;DHT22;47258;59.424;13.482;2023-02-03T06:39:14;-3.90;99.90
46217;DHT22;47258;59.424;13.482;2023-02-03T06:41:41;-3.90;99.90
46217;DHT22;47258;59.424;13.482;2023-02-03T06:44:09;-3.80;99.90
46217;DHT22;47258;59.424;13.482;2023-02-03T06:46:36;-3.80;99.90
46217;DHT22;47258;59.424;13.482;2023-02-03T06:49:03;-3.80;99.90
46217;DHT22;47258;59.424;13.482;2023-02-03T06:51:32;-3.80;99.90
46217;DHT22;47258;59.424;13.482;2023-02-03T06:53:59;-3.70;99.90
46217;DHT22;47258;59.424;13.482;2023-02-03T06:56:26;-3.70;99.90
46217;DHT22;47258;59.424;13.482;2023-02-03T06:58:53;-3.60;99.90
46217;DHT22;47258;59.424;13.482;2023-02-03T07:01:20;-3.60;99.90
46217;DHT22;47258;59.424;13.482;2023-02-03T07:03:47;-3.60;99.90
46217;DHT22;47258;59.424;13.482;2023-02-03T07:06:14;-3.50;99.90
46217;DHT22;47258;59.424;13.482;2023-02-03T07:08:43;-3.50;99.90
46217;DHT22;47258;59.424;13.482;2023-02-03T07:11:10;-3.50;99.90
46217;DHT22;47258;59.424;13.482;2023-02-03T07:13:37;-3.50;99.90
46217;DHT22;47258;59.424;13.482;2023-02-03T07:16:05;-3.50;99.90
46217;DHT22;47258;59.424;13.482;2023-02-03T07:18:32;-3.50;99.90
46217;DHT22;47258;59.424;13.482;2023-02-03T07:20:59;-3.50;99.90
46217;DHT22;47258;59.424;13.482;2023-02-03T07:23:26;-3.40;99.90
46217;DHT22;47258;59.424;13.482;2023-02-03T07:25:58;-3.40;99.90
46217;DHT22;47258;59.424;13.482;2023-02-03T07:28:25;-3.40;99.90
46217;DHT22;47258;59.424;13.482;2023-02-03T07:30:52;-3.40;99.90
46217;DHT22;47258;59.424;13.482;2023-02-03T07:33:19;-3.40;99.90
46217;DHT22;47258;59.424;13.482;2023-02-03T07:35:51;-3.40;99.90
46217;DHT22;47258;59.424;13.482;2023-02-03T07:38:18;-3.40;99.90
46217;DHT22;47258;59.424;13.482;2023-02-03T07:40:45;-3.40;99.90
46217;DHT22;47258;59.424;13.482;2023-02-03T07:43:13;-3.30;99.90
46217;DHT22;47258;59.424;13.482;2023-02-03T07:45:40;-3.30;99.90
46217;DHT22;47258;59.424;13.482;2023-02-03T07:48:08;-3.30;99.90
46217;DHT22;47258;59.424;13.482;2023-02-03T07:50:35;-3.20;99.90
46217;DHT22;47258;59.424;13.482;2023-02-03T07:53:03;-3.20;99.90
46217;DHT22;47258;59.424;13.482;2023-02-03T07:55:30;-3.20;99.90
46217;DHT22;47258;59.424;13.482;2023-02-03T07:57:57;-3.20;99.90
46217;DHT22;47258;59.424;13.482;2023-02-03T08:00:26;-3.10;99.90
46217;DHT22;47258;59.424;13.482;2023-02-03T08:02:53;-3.10;99.90
46217;DHT22;47258;59.424;13.482;2023-02-03T08:05:20;-3.10;99.90
46217;DHT22;47258;59.424;13.482;2023-02-03T08:07:47;-3.10;99.90
46217;DHT22;47258;59.424;13.482;2023-02-03T08:10:15;-3.10;99.90
46217;DHT22;47258;59.424;13.482;2023-02-03T08:12:42;-3.10;99.90
46217;DHT22;47258;59.424;13.482;2023-02-03T08:15:12;-3.10;99.90
46217;DHT22;47258;59.424;13.482;2023-02-03T08:17:40;-3.20;99.90
46217;DHT22;47258;59.424;13.482;2023-02-03T08:20:10;-3.20;99.90
46217;DHT22;47258;59.424;13.482;2023-02-03T08:22:37;-3.20;99.90
46217;DHT22;47258;59.424;13.482;2023-02-03T08:25:05;-3.20;99.90
46217;DHT22;47258;59.424;13.482;2023-02-03T08:27:32;-3.30;99.90
46217;DHT22;47258;59.424;13.482;2023-02-03T08:29:59;-3.30;99.90
46217;DHT22;47258;59.424;13.482;2023-02-03T08:32:27;-3.30;99.90
46217;DHT22;47258;59.424;13.482;2023-02-03T08:34:55;-3.30;99.90
46217;DHT22;47258;59.424;13.482;2023-02-03T08:37:23;-3.30;99.90
46217;DHT22;47258;59.424;13.482;2023-02-03T08:39:50;-3.20;99.90
46217;DHT22;47258;59.424;13.482;2023-02-03T08:42:18;-3.20;99.90
46217;DHT22;47258;59.424;13.482;2023-02-03T08:44:45;-3.10;99.90
46217;DHT22;47258;59.424;13.482;2023-02-03T08:47:14;-3.00;99.90
46217;DHT22;47258;59.424;13.482;2023-02-03T08:49:41;-2.90;99.90
46217;DHT22;47258;59.424;13.482;2023-02-03T08:52:11;-2.90;99.90
46217;DHT22;47258;59.424;13.482;2023-02-03T08:54:38;-2.90;99.90
46217;DHT22;47258;59.424;13.482;2023-02-03T08:57:06;-2.90;99.90
46217;DHT22;47258;59.424;13.482;2023-02-03T08:59:33;-2.90;99.90
46217;DHT22;47258;59.424;13.482;2023-02-03T09:02:01;-2.90;99.90
46217;DHT22;47258;59.424;13.482;2023-02-03T09:04:29;-2.90;99.90
46217;DHT22;47258;59.424;13.482;2023-02-03T09:06:58;-2.80;99.90
46217;DHT22;47258;59.424;13.482;2023-02-03T09:09:28;-2.80;99.90
46217;DHT22;47258;59.424;13.482;2023-02-03T09:11:56;-2.70;99.90
46217;DHT22;47258;59.424;13.482;2023-02-03T09:14:27;-2.70;99.90
46217;DHT22;47258;59.424;13.482;2023-02-03T09:16:54;-2.70;99.90
46217;DHT22;47258;59.424;13.482;2023-02-03T09:19:21;-2.70;99.90
46217;DHT22;47258;59.424;13.482;2023-02-03T09:21:48;-2.70;99.90
46217;DHT22;47258;59.424;13.482;2023-02-03T09:24:16;-2.70;99.90
46217;DHT22;47258;59.424;13.482;2023-02-03T09:26:44;-2.70;99.90
46217;DHT22;47258;59.424;13.482;2023-02-03T09:29:11;-2.70;99.90
46217;DHT22;47258;59.424;13.482;2023-02-03T09:31:38;-2.80;99.90
46217;DHT22;47258;59.424;13.482;2023-02-03T09:34:05;-2.80;99.90
46217;DHT22;47258;59.424;13.482;2023-02-03T09:36:33;-2.80;99.90
46217;DHT22;47258;59.424;13.482;2023-02-03T09:39:00;-2.80;99.90
46217;DHT22;47258;59.424;13.482;2023-02-03T09:41:45;-2.80;99.90
46217;DHT22;47258;59.424;13.482;2023-02-03T09:44:18;-2.80;99.90
46217;DHT22;47258;59.424;13.482;2023-02-03T09:46:49;-2.80;99.90
46217;DHT22;47258;59.424;13.482;2023-02-03T09:49:23;-2.80;99.90
46217;DHT22;47258;59.424;13.482;2023-02-03T09:51:54;-2.80;99.90
46217;DHT22;47258;59.424;13.482;2023-02-03T09:54:26;-2.80;99.90
46217;DHT22;47258;59.424;13.482;2023-02-03T09:56:59;-2.70;99.90
46217;DHT22;47258;59.424;13.482;2023-02-03T09:59:28;-2.70;99.90
46217;DHT22;47258;59.424;13.482;2023-02-03T10:02:02;-2.60;99.90
46217;DHT22;47258;59.424;13.482;2023-02-03T10:04:41;-2.60;99.90
46217;DHT22;47258;59.424;13.482;2023-02-03T10:07:14;-2.50;99.90
46217;DHT22;47258;59.424;13.482;2023-02-03T10:09:53;-2.50;99.90
46217;DHT22;47258;59.424;13.482;2023-02-03T10:12:44;-2.40;99.90
46217;DHT22;47258;59.424;13.482;2023-02-03T10:16:02;-2.40;99.90
46217;DHT22;47258;59.424;13.482;2023-02-03T10:18:35;-2.40;99.90
46217;DHT22;47258;59.424;13.482;2023-02-03T10:21:11;-2.40;99.90
46217;DHT22;47258;59.424;13.482;2023-02-03T10:23:41;-2.40;99.90
46217;DHT22;47258;59.424;13.482;2023-02-03T10:26:13;-2.30;99.90
46217;DHT22;47258;59.424;13.482;2023-02-03T10:28:47;-2.30;99.90
46217;DHT22;47258;59.424;13.482;2023-02-03T10:31:18;-2.30;99.90
46217;DHT22;47258;59.424;13.482;2023-02-03T10:33:46;-2.30;99.90
46217;DHT22;47258;59.424;13.482;2023-02-03T10:36:18;-2.20;99.90
46217;DHT22;47258;59.424;13.482;2023-02-03T10:38:52;-2.20;99.90
46217;DHT22;47258;59.424;13.482;2023-02-03T10:41:21;-2.10;99.90
46217;DHT22;47258;59.424;13.482;2023-02-03T10:43:51;-2.10;99.90
46217;DHT22;47258;59.424;13.482;2023-02-03T10:46:20;-2.10;99.90
46217;DHT22;47258;59.424;13.482;2023-02-03T10:48:52;-2.10;99.90
46217;DHT22;47258;59.424;13.482;2023-02-03T10:51:21;-2.00;99.90
46217;DHT22;47258;59.424;13.482;2023-02-03T10:53:49;-2.10;99.90
46217;DHT22;47258;59.424;13.482;2023-02-03T10:56:20;-2.00;99.90
46217;DHT22;47258;59.424;13.482;2023-02-03T10:58:54;-2.00;99.90
46217;DHT22;47258;59.424;13.482;2023-02-03T11:01:23;-2.00;99.90
46217;DHT22;47258;59.424;13.482;2023-02-03T11:03:57;-1.90;99.90
46217;DHT22;47258;59.424;13.482;2023-02-03T11:06:25;-1.90;99.90
46217;DHT22;47258;59.424;13.482;2023-02-03T11:08:52;-1.90;99.90
46217;DHT22;47258;59.424;13.482;2023-02-03T11:11:22;-1.80;99.90
46217;DHT22;47258;59.424;13.482;2023-02-03T11:14:09;-1.80;99.90
46217;DHT22;47258;59.424;13.482;2023-02-03T11:16:37;-1.80;99.90
46217;DHT22;47258;59.424;13.482;2023-02-03T11:19:05;-1.80;99.90
46217;DHT22;47258;59.424;13.482;2023-02-03T11:21:41;-1.90;99.90
46217;DHT22;47258;59.424;13.482;2023-02-03T11:24:16;-1.90;99.90
46217;DHT22;47258;59.424;13.482;2023-02-03T11:26:47;-1.80;99.90
46217;DHT22;47258;59.424;13.482;2023-02-03T11:29:21;-1.80;99.90
46217;DHT22;47258;59.424;13.482;2023-02-03T11:31:50;-1.90;99.90
46217;DHT22;47258;59.424;13.482;2023-02-03T11:34:20;-1.90;99.90
46217;DHT22;47258;59.424;13.482;2023-02-03T11:36:49;-1.80;99.90
46217;DHT22;47258;59.424;13.482;2023-02-03T11:39:28;-1.80;99.90
46217;DHT22;47258;59.424;13.482;2023-02-03T11:42:00;-1.80;99.90
46217;DHT22;47258;59.424;13.482;2023-02-03T11:44:29;-1.80;99.90
46217;DHT22;47258;59.424;13.482;2023-02-03T11:47:00;-1.80;99.90
46217;DHT22;47258;59.424;13.482;2023-02-03T11:49:50;-1.80;99.90
46217;DHT22;47258;59.424;13.482;2023-02-03T11:52:38;-1.70;99.90
46217;DHT22;47258;59.424;13.482;2023-02-03T11:55:13;-1.70;99.90
46217;DHT22;47258;59.424;13.482;2023-02-03T11:57:46;-1.70;99.90
46217;DHT22;47258;59.424;13.482;2023-02-03T12:00:24;-1.80;99.90
46217;DHT22;47258;59.424;13.482;2023-02-03T12:03:02;-1.80;99.90
46217;DHT22;47258;59.424;13.482;2023-02-03T12:05:58;-1.80;99.90
46217;DHT22;47258;59.424;13.482;2023-02-03T12:08:48;-1.80;99.90
46217;DHT22;47258;59.424;13.482;2023-02-03T12:11:23;-1.90;99.90
46217;DHT22;47258;59.424;13.482;2023-02-03T12:17:04;-1.90;99.90
46217;DHT22;47258;59.424;13.482;2023-02-03T12:19:45;-1.90;99.90
46217;DHT22;47258;59.424;13.482;2023-02-03T12:22:21;-1.90;99.90
46217;DHT22;47258;59.424;13.482;2023-02-03T12:24:55;-1.90;99.90
46217;DHT22;47258;59.424;13.482;2023-02-03T12:27:33;-1.90;99.90
46217;DHT22;47258;59.424;13.482;2023-02-03T12:30:09;-1.90;99.90
46217;DHT22;47258;59.424;13.482;2023-02-03T12:32:44;-1.90;99.90
46217;DHT22;47258;59.424;13.482;2023-02-03T12:35:15;-1.90;99.90
46217;DHT22;47258;59.424;13.482;2023-02-03T12:37:48;-1.90;99.90
46217;DHT22;47258;59.424;13.482;2023-02-03T12:40:20;-1.80;99.90
46217;DHT22;47258;59.424;13.482;2023-02-03T12:42:52;-1.80;99.90
46217;DHT22;47258;59.424;13.482;2023-02-03T12:45:23;-1.80;99.90
46217;DHT22;47258;59.424;13.482;2023-02-03T12:47:57;-1.80;99.90
46217;DHT22;47258;59.424;13.482;2023-02-03T12:50:29;-1.80;99.90
46217;DHT22;47258;59.424;13.482;2023-02-03T12:53:00;-1.70;99.90
46217;DHT22;47258;59.424;13.482;2023-02-03T12:55:34;-1.70;99.90
46217;DHT22;47258;59.424;13.482;2023-02-03T12:58:05;-1.70;99.90
46217;DHT22;47258;59.424;13.482;2023-02-03T13:00:40;-1.70;99.90
46217;DHT22;47258;59.424;13.482;2023-02-03T13:03:15;-1.70;99.90
46217;DHT22;47258;59.424;13.482;2023-02-03T13:05:48;-1.70;99.90
46217;DHT22;47258;59.424;13.482;2023-02-03T13:08:25;-1.70;99.90
46217;DHT22;47258;59.424;13.482;2023-02-03T13:10:58;-1.70;99.90
46217;DHT22;47258;59.424;13.482;2023-02-03T13:13:34;-1.70;99.90
46217;DHT22;47258;59.424;13.482;2023-02-03T13:16:06;-1.80;99.90
46217;DHT22;47258;59.424;13.482;2023-02-03T13:18:37;-1.80;99.90
46217;DHT22;47258;59.424;13.482;2023-02-03T13:21:09;-1.70;99.90
46217;DHT22;47258;59.424;13.482;2023-02-03T13:23:38;-1.70;99.90
46217;DHT22;47258;59.424;13.482;2023-02-03T13:26:44;-1.60;99.90
46217;DHT22;47258;59.424;13.482;2023-02-03T13:29:31;-1.70;99.90
46217;DHT22;47258;59.424;13.482;2023-02-03T13:32:09;-1.70;99.90
46217;DHT22;47258;59.424;13.482;2023-02-03T13:35:03;-1.60;99.90
46217;DHT22;47258;59.424;13.482;2023-02-03T13:37:53;-1.50;99.90
46217;DHT22;47258;59.424;13.482;2023-02-03T13:40:30;-1.50;99.90
46217;DHT22;47258;59.424;13.482;2023-02-03T13:43:02;-1.50;99.90
46217;DHT22;47258;59.424;13.482;2023-02-03T13:45:32;-1.50;99.90
46217;DHT22;47258;59.424;13.482;2023-02-03T13:48:08;-1.40;99.90
46217;DHT22;47258;59.424;13.482;2023-02-03T13:50:38;-1.40;99.90
46217;DHT22;47258;59.424;13.482;2023-02-03T13:53:13;-1.40;99.90
46217;DHT22;47258;59.424;13.482;2023-02-03T13:55:43;-1.40;99.90
46217;DHT22;47258;59.424;13.482;2023-02-03T13:58:19;-1.40;99.90
46217;DHT22;47258;59.424;13.482;2023-02-03T14:01:03;-1.40;99.90
46217;DHT22;47258;59.424;13.482;2023-02-03T14:03:42;-1.40;99.90
46217;DHT22;47258;59.424;13.482;2023-02-03T14:09:34;-1.40;99.90
46217;DHT22;47258;59.424;13.482;2023-02-03T14:12:20;-1.40;99.90
46217;DHT22;47258;59.424;13.482;2023-02-03T14:14:58;-1.40;99.90
46217;DHT22;47258;59.424;13.482;2023-02-03T14:21:20;-1.40;99.90
46217;DHT22;47258;59.424;13.482;2023-02-03T14:23:58;-1.40;99.90
46217;DHT22;47258;59.424;13.482;2023-02-03T14:26:33;-1.40;99.90
46217;DHT22;47258;59.424;13.482;2023-02-03T14:29:03;-1.50;99.90
46217;DHT22;47258;59.424;13.482;2023-02-03T14:31:31;-1.50;99.90
46217;DHT22;47258;59.424;13.482;2023-02-03T14:34:09;-1.50;99.90
46217;DHT22;47258;59.424;13.482;2023-02-03T14:36:46;-1.50;99.90
46217;DHT22;47258;59.424;13.482;2023-02-03T14:39:43;-1.50;99.90
46217;DHT22;47258;59.424;13.482;2023-02-03T14:42:38;-1.40;99.90
46217;DHT22;47258;59.424;13.482;2023-02-03T14:45:28;-1.40;99.90
46217;DHT22;47258;59.424;13.482;2023-02-03T14:48:09;-1.40;99.90
46217;DHT22;47258;59.424;13.482;2023-02-03T14:50:48;-1.40;99.90
46217;DHT22;47258;59.424;13.482;2023-02-03T14:53:29;-1.40;99.90
46217;DHT22;47258;59.424;13.482;2023-02-03T14:56:10;-1.40;99.90
46217;DHT22;47258;59.424;13.482;2023-02-03T14:58:44;-1.30;99.90
46217;DHT22;47258;59.424;13.482;2023-02-03T15:01:26;-1.30;99.90
46217;DHT22;47258;59.424;13.482;2023-02-03T15:04:22;-1.20;99.90
46217;DHT22;47258;59.424;13.482;2023-02-03T15:06:51;-1.20;99.90
46217;DHT22;47258;59.424;13.482;2023-02-03T15:09:25;-1.20;99.90
46217;DHT22;47258;59.424;13.482;2023-02-03T15:11:53;-1.20;99.90
46217;DHT22;47258;59.424;13.482;2023-02-03T15:14:23;-1.20;99.90
46217;DHT22;47258;59.424;13.482;2023-02-03T15:16:56;-1.30;99.90
46217;DHT22;47258;59.424;13.482;2023-02-03T15:19:26;-1.30;99.90
46217;DHT22;47258;59.424;13.482;2023-02-03T15:21:54;-1.30;99.90
46217;DHT22;47258;59.424;13.482;2023-02-03T15:24:21;-1.40;99.90
46217;DHT22;47258;59.424;13.482;2023-02-03T15:26:52;-1.40;99.90
46217;DHT22;47258;59.424;13.482;2023-02-03T15:29:28;-1.40;99.90
46217;DHT22;47258;59.424;13.482;2023-02-03T15:32:03;-1.40;99.90
46217;DHT22;47258;59.424;13.482;2023-02-03T15:34:36;-1.50;99.90
46217;DHT22;47258;59.424;13.482;2023-02-03T15:37:08;-1.50;99.90
46217;DHT22;47258;59.424;13.482;2023-02-03T15:39:44;-1.50;99.90
46217;DHT22;47258;59.424;13.482;2023-02-03T15:42:18;-1.50;99.90
46217;DHT22;47258;59.424;13.482;2023-02-03T15:44:52;-1.50;99.90
46217;DHT22;47258;59.424;13.482;2023-02-03T15:47:27;-1.50;99.90
46217;DHT22;47258;59.424;13.482;2023-02-03T15:50:00;-1.60;99.90
46217;DHT22;47258;59.424;13.482;2023-02-03T15:52:28;-1.60;99.90
46217;DHT22;47258;59.424;13.482;2023-02-03T15:55:04;-1.60;99.90